Flight Track Log - Related Links

Times and Time Zones

All times are in EDT time to prevent confusion due to time zone crossing. See the SWA2975 flight status page for this flight to view local times or setup timezone preferences in your user account.

Time Position Orientation Groundspeed Altitude Reporting Facility
EDT Latitude Longitude Course Direction KTS MPH feet Rate Location/Type
Mon 06:15:39 PM 39.8410 -104.7290 271° West 189 217 6,200  Level FlightAware ADS-B
Mon 06:16:03 PM 39.8430 -104.7560 276° West 199 229 7,100 1,857 Climbing FlightAware ADS-B
Mon 06:16:21 PM 39.8500 -104.7780 293° West 217 250 7,500 1,286 Climbing FlightAware ADS-B
Mon 06:16:45 PM 39.8640 -104.8050 304° West 245 282 8,000 1,731 Climbing FlightAware ADS-B
Mon 06:17:13 PM 39.8820 -104.8420 302° West 261 300 9,000 1,833 Climbing FlightAware ADS-B
Mon 06:17:57 PM 39.9110 -104.9020 302° West 269 310 10,200 1,929 Climbing FlightAware ADS-B
Mon 06:18:37 PM 39.9280 -104.9630 290° West 281 323 11,700 2,357 Climbing FlightAware ADS-B
Mon 06:19:21 PM 39.9330 -105.0400 275° West 294 338 13,500 2,045 Climbing FlightAware ADS-B
Mon 06:20:05 PM 39.9380 -105.1200 275° West 328 377 14,700 2,250 Climbing FlightAware ADS-B
Mon 06:20:41 PM 39.9430 -105.1930 275° West 330 380 16,500 2,925 Climbing FlightAware ADS-B
Mon 06:21:25 PM 39.9490 -105.2800 275° West 333 383 18,600 -104 Climbing FlightAware ADS-B
Mon 06:24:00 PM 40.0223 -104.8804 76° East  Level Estimated
Mon 06:25:00 PM 40.0503 -104.7255 77° East  Level Estimated
Mon 06:26:00 PM 40.0781 -104.5704 77° East  Level Estimated
Mon 06:27:00 PM 40.1057 -104.4153 77° East  Level Estimated
Mon 06:28:00 PM 40.1331 -104.2600 77° East  Level Estimated
Mon 06:29:00 PM 40.1602 -104.1045 77° East  Level Estimated
Mon 06:30:00 PM 40.1872 -103.9490 77° East  Level Estimated
Mon 06:31:00 PM 40.2140 -103.7933 77° East  Level Estimated
Mon 06:32:00 PM 40.2405 -103.6375 77° East  Level Estimated
Mon 06:33:00 PM 40.2668 -103.4816 77° East  Level Estimated
Mon 06:34:00 PM 40.2930 -103.3256 78° East  Level Estimated
Mon 06:35:00 PM 40.3189 -103.1694 78° East  Level Estimated
Mon 06:36:00 PM 40.3446 -103.0132 78° East  Level Estimated
Mon 06:37:00 PM 40.3701 -102.8568 78° East  Level Estimated
Mon 06:38:00 PM 40.3954 -102.7003 78° East  Level Estimated
Mon 06:39:00 PM 40.4205 -102.5436 78° East  Level Estimated
Mon 06:40:00 PM 40.4454 -102.3869 78° East  Level Estimated
Mon 06:41:00 PM 40.4700 -102.2300 78° East  Level Estimated
Mon 06:42:00 PM 40.4944 -102.0731 78° East  Level Estimated
Mon 06:43:00 PM 40.5187 -101.9160 78° East  Level Estimated
Mon 06:44:00 PM 40.5427 -101.7588 79° East  Level Estimated
Mon 06:45:00 PM 40.5665 -101.6015 79° East  Level Estimated
Mon 06:46:00 PM 40.5901 -101.4441 79° East  Level Estimated
Mon 06:47:00 PM 40.6135 -101.2865 79° East  Level Estimated
Mon 06:48:00 PM 40.6366 -101.1289 79° East  Level Estimated
Mon 06:49:00 PM 40.6596 -100.9711 79° East  Level Estimated
Mon 06:50:00 PM 40.6823 -100.8133 79° East  Level Estimated
Mon 06:51:00 PM 40.7048 -100.6553 79° East  Level Estimated
Mon 06:52:00 PM 40.7271 -100.4972 79° East  Level Estimated
Mon 06:53:00 PM 40.7492 -100.3391 80° East  Level Estimated
Mon 06:54:00 PM 40.7711 -100.1808 80° East  Level Estimated
Mon 06:55:00 PM 40.7927 -100.0224 80° East  Level Estimated
Mon 06:56:00 PM 40.8142 -99.8639 80° East  Level Estimated
Mon 06:57:00 PM 40.8354 -99.7053 80° East  Level Estimated
Mon 06:58:00 PM 40.8564 -99.5466 80° East  Level Estimated
Mon 06:59:00 PM 40.8772 -99.3878 80° East  Level Estimated
Mon 07:00:00 PM 40.8977 -99.2289 80° East  Level Estimated
Mon 07:01:00 PM 40.9181 -99.0699 80° East  Level Estimated
Mon 07:02:00 PM 40.9384 -98.9098 80° East  Level Estimated
Mon 07:03:00 PM 40.9584 -98.7496 81° East  Level Estimated
Mon 07:04:00 PM 40.9782 -98.5893 81° East  Level Estimated
Mon 07:05:00 PM 40.9978 -98.4289 81° East  Level Estimated
Mon 07:06:00 PM 41.0172 -98.2684 81° East  Level Estimated
Mon 07:07:00 PM 41.0363 -98.1078 81° East  Level Estimated
Mon 07:08:00 PM 41.0552 -97.9471 81° East  Level Estimated
Mon 07:09:00 PM 41.0740 -97.7863 81° East  Level Estimated
Mon 07:10:00 PM 41.0924 -97.6255 81° East  Level Estimated
Mon 07:11:00 PM 41.1107 -97.4645 81° East  Level Estimated
Mon 07:12:00 PM 41.1287 -97.3035 81° East  Level Estimated
Mon 07:13:00 PM 41.1465 -97.1423 82° East  Level Estimated
Mon 07:14:00 PM 41.1641 -96.9811 82° East  Level Estimated
Mon 07:15:00 PM 41.1815 -96.8198 82° East  Level Estimated
Mon 07:16:00 PM 41.1986 -96.6584 82° East  Level Estimated
Mon 07:17:00 PM 41.2155 -96.4969 82° East  Level Estimated
Mon 07:18:00 PM 41.2322 -96.3354 82° East  Level Estimated
Mon 07:19:00 PM 41.2486 -96.1737 82° East  Level Estimated
Mon 07:20:00 PM 41.2649 -96.0120 82° East  Level Estimated
Mon 07:21:00 PM 41.2809 -95.8502 82° East  Level Estimated
Mon 07:22:00 PM 41.2966 -95.6883 83° East  Level Estimated
Mon 07:23:00 PM 41.3122 -95.5263 83° East  Level Estimated
Mon 07:24:00 PM 41.3275 -95.3643 83° East  Level Estimated
Mon 07:25:00 PM 41.3426 -95.2022 83° East  Level Estimated
Mon 07:26:00 PM 41.3575 -95.0400 83° East  Level Estimated
Mon 07:27:00 PM 41.3721 -94.8777 83° East  Level Estimated
Mon 07:28:00 PM 41.3865 -94.7154 83° East  Level Estimated
Mon 07:29:00 PM 41.4007 -94.5530 83° East  Level Estimated
Mon 07:30:00 PM 41.4146 -94.3905 83° East  Level Estimated
Mon 07:31:00 PM 41.4284 -94.2280 84° East  Level Estimated
Mon 07:32:00 PM 41.4419 -94.0654 84° East  Level Estimated
Mon 07:33:00 PM 41.4551 -93.9027 84° East  Level Estimated
Mon 07:34:00 PM 41.4682 -93.7399 84° East  Level Estimated
Mon 07:35:00 PM 41.4810 -93.5771 84° East  Level Estimated
Mon 07:36:00 PM 41.4936 -93.4142 84° East  Level Estimated
Mon 07:37:00 PM 41.5059 -93.2513 84° East  Level Estimated
Mon 07:38:00 PM 41.5180 -93.0883 84° East  Level Estimated
Mon 07:39:00 PM 41.5299 -92.9252 84° East  Level Estimated
Mon 07:40:00 PM 41.5416 -92.7621 84° East  Level Estimated
Mon 07:41:00 PM 41.5530 -92.5989 85° East  Level Estimated
Mon 07:42:00 PM 41.5642 -92.4357 85° East  Level Estimated
Mon 07:43:00 PM 41.5752 -92.2724 85° East  Level Estimated
Mon 07:44:00 PM 41.5859 -92.1091 85° East  Level Estimated
Mon 07:45:00 PM 41.5964 -91.9457 85° East  Level Estimated
Mon 07:46:00 PM 41.6067 -91.7822 85° East  Level Estimated
Mon 07:47:00 PM 41.6167 -91.6187 85° East  Level Estimated
Mon 07:48:00 PM 41.6265 -91.4552 85° East  Level Estimated
Mon 07:49:00 PM 41.6361 -91.2916 85° East  Level Estimated
Mon 07:50:00 PM 41.6454 -91.1279 86° East  Level Estimated
Mon 07:51:00 PM 41.6545 -90.9642 86° East  Level Estimated
Mon 07:52:00 PM 41.6634 -90.8005 86° East  Level Estimated
Mon 07:53:00 PM 41.6721 -90.6367 86° East  Level Estimated
Mon 07:54:00 PM 41.6805 -90.4728 86° East  Level Estimated
Mon 07:55:00 PM 41.6887 -90.3090 86° East  Level Estimated
Mon 07:56:00 PM 41.6966 -90.1451 86° East  Level Estimated
Mon 07:57:00 PM 41.7043 -89.9811 86° East  Level Estimated
Mon 07:58:00 PM 41.7118 -89.8171 86° East  Level Estimated
Mon 07:59:00 PM 41.7191 -89.6531 87° East  Level Estimated
Mon 08:00:00 PM 41.7261 -89.4890 87° East  Level Estimated
Mon 08:01:00 PM 41.7329 -89.3249 87° East  Level Estimated
Mon 08:02:00 PM 41.7394 -89.1608 87° East  Level Estimated
Mon 08:03:00 PM 41.7457 -88.9966 87° East  Level Estimated
Mon 08:04:00 PM 41.7518 -88.8324 87° East  Level Estimated
Mon 08:06:00 PM 41.0108 -111.9907 353° North  Level FlightAware Approximate
Mon 08:06:05 PM 40.7740 -111.9740 353° North 154 177 5,500  Level FlightAware ADS-B
Mon 08:06:38 PM 40.7570 -111.9960 224° Southwest 209 241 6,400 1,600 Climbing FlightAware ADS-B
Mon 08:06:50 PM 40.7560 -112.0130 266° West 226 260 6,700 1,875 Climbing FlightAware ADS-B
Mon 08:07:10 PM 40.7520 -112.0420 260° West 248 285 7,400 1,463 Climbing FlightAware ADS-B
Mon 08:07:31 PM 40.7630 -112.0720 296° West 282 325 7,700 1,667 Climbing FlightAware ADS-B
Mon 08:07:46 PM 40.7810 -112.0830 335° Northwest 296 341 8,400 3,478 Climbing FlightAware ADS-B
Mon 08:08:40 PM 40.8480 -112.0740 North 299 344 11,700 3,257 Climbing FlightAware ADS-B
Mon 08:08:56 PM 40.8620 -112.0470 56° Northeast 320 368 12,200 2,571 Climbing FlightAware ADS-B
Mon 08:09:36 PM 40.8900 -111.9720 64° Northeast 345 397 14,100 2,714 Climbing FlightAware ADS-B
Mon 08:10:20 PM 40.9220 -111.8910 62° Northeast 361 415 16,000 2,682 Climbing FlightAware ADS-B
Mon 08:11:01 PM 40.9560 -111.8080 62° Northeast 369 425 17,900 2,325 Climbing FlightAware ADS-B
Mon 08:11:40 PM 40.9860 -111.7310 63° Northeast 384 442 19,100 2,240 Climbing FlightAware ADS-B
Mon 08:12:16 PM 41.0150 -111.6560 63° Northeast 386 444 20,700 1,613 Climbing FlightAware ADS-B
Mon 08:13:13 PM 41.0380 -111.5340 76° East 386 444 21,600 574 Climbing FlightAware ADS-B
Mon 08:13:50 PM 41.0490 -111.4610 79° East 386 444 21,600 2,203 Level FlightAware ADS-B
Mon 08:14:32 PM 41.0540 -111.3300 87° East 417 480 24,500 2,387 Climbing FlightAware ADS-B
Mon 08:15:23 PM 41.0640 -111.2090 84° East 420 483 25,300 552 Climbing FlightAware ADS-B
Mon 08:15:59 PM 41.0720 -111.1310 82° East 420 483 25,300  Level FlightAware ADS-B
Mon 08:16:37 PM 41.0790 -111.0480 84° East 420 483 25,300  Level FlightAware ADS-B
Mon 08:17:26 PM 41.0890 -110.9410 83° East 420 483 25,300  Level FlightAware ADS-B
Mon 08:18:02 PM 41.0960 -110.8630 83° East 420 483 25,300  Level FlightAware ADS-B
Mon 08:18:50 PM 41.1060 -110.7590 83° East 420 483 25,300 3,305 Level FlightAware ADS-B
Mon 08:20:00 PM 41.2286 -110.4697 83° East 472 543 31,800 3,500 Climbing Salt Lake Center
Mon 08:21:02 PM 41.2697 -110.3083 71° East 480 552 33,000 1,122 Climbing Salt Lake Center
Mon 08:22:03 PM 41.3186 -110.1175 71° East 487 560 34,100 927 Climbing Salt Lake Center
Mon 08:23:05 PM 41.3603 -109.9514 71° East 492 566 34,900 823 Climbing Salt Lake Center
Mon 08:24:07 PM 41.4089 -109.7556 72° East 499 574 35,800 732 Climbing Salt Lake Center
Mon 08:25:08 PM 41.4514 -109.5842 72° East 507 583 36,400 537 Climbing Salt Lake Center
Mon 08:26:10 PM 41.4950 -109.4089 72° East 515 593 36,900 293 Climbing Salt Lake Center
Mon 08:27:11 PM 41.5472 -109.1994 72° East 523 602 37,000 49 Climbing Salt Lake Center
Mon 08:28:13 PM 41.5889 -109.0181 73° East 521 600 37,000  Level Salt Lake Center
Mon 08:29:15 PM 41.6053 -108.8344 83° East 516 594 37,000  Level Salt Lake Center
Mon 08:30:16 PM 41.6214 -108.6233 84° East 512 589 37,000  Level Salt Lake Center
Mon 08:31:18 PM 41.6350 -108.4425 84° East 510 587 37,000  Level Salt Lake Center
Mon 08:32:20 PM 41.6508 -108.2314 84° East 512 589 37,000  Level Salt Lake Center
Mon 08:33:21 PM 41.6631 -108.0517 85° East 510 587 37,000  Level Salt Lake Center
Mon 08:34:23 PM 41.6756 -107.8728 85° East 505 581 37,000  Level Salt Lake Center
Mon 08:40:35 PM 41.7510 -106.6820 85° East 506 582 37,000  Level FlightAware ADS-B
Mon 08:41:12 PM 41.7570 -106.5840 85° East 506 582 37,000  Level FlightAware ADS-B
Mon 08:41:58 PM 41.7610 -106.4200 88° East 509 586 37,000  Level FlightAware ADS-B
Mon 08:42:41 PM 41.7590 -106.2860 91° East 512 589 37,000  Level FlightAware ADS-B
Mon 08:43:23 PM 41.7560 -106.1490 92° East 512 589 37,000  Level FlightAware ADS-B
Mon 08:44:05 PM 41.7540 -106.0190 91° East 512 589 37,000  Level FlightAware ADS-B
Mon 08:44:46 PM 41.7520 -105.8920 91° East 512 589 37,000  Level FlightAware ADS-B
Mon 08:45:27 PM 41.7500 -105.7590 91° East 513 590 37,000  Level FlightAware ADS-B
Mon 08:46:11 PM 41.7480 -105.6220 91° East 514 592 37,000  Level FlightAware ADS-B
Mon 08:46:53 PM 41.7450 -105.4860 92° East 515 593 37,000  Level FlightAware ADS-B
Mon 08:47:51 PM 41.7410 -105.3010 92° East 516 594 37,000  Level FlightAware ADS-B
Mon 08:48:31 PM 41.7380 -105.1790 92° East 518 596 37,000  Level FlightAware ADS-B
Mon 08:49:11 PM 41.7350 -105.0470 92° East 519 597 37,000  Level FlightAware ADS-B
Mon 08:49:55 PM 41.7310 -104.9060 92° East 520 598 37,000  Level FlightAware ADS-B
Mon 08:50:35 PM 41.7280 -104.7770 92° East 520 598 37,000  Level FlightAware ADS-B
Mon 08:51:15 PM 41.7240 -104.6500 92° East 520 598 37,000  Level FlightAware ADS-B
Mon 08:52:01 PM 41.7070 -104.5010 99° East 523 602 37,000  Level FlightAware ADS-B
Mon 08:52:42 PM 41.6890 -104.3760 101° East 523 602 37,000  Level FlightAware ADS-B
Mon 08:53:25 PM 41.6690 -104.2360 101° East 521 600 37,000  Level FlightAware ADS-B
Mon 08:54:05 PM 41.6520 -104.1110 100° East 516 594 37,000  Level FlightAware ADS-B
Mon 08:54:50 PM 41.6320 -103.9740 101° East 511 588 37,000  Level FlightAware ADS-B
Mon 08:55:30 PM 41.6140 -103.8490 101° East 512 589 37,000  Level FlightAware ADS-B
Mon 08:56:14 PM 41.5940 -103.7130 101° East 513 590 37,000  Level FlightAware ADS-B
Mon 08:56:53 PM 41.5760 -103.5890 101° East 514 592 37,000  Level FlightAware ADS-B
Mon 08:57:39 PM 41.5540 -103.4470 102° East 514 592 37,000  Level FlightAware ADS-B
Mon 08:58:15 PM 41.5370 -103.3350 101° East 513 590 37,000  Level FlightAware ADS-B
Mon 08:59:03 PM 41.5180 -103.1870 100° East 506 582 37,000  Level FlightAware ADS-B
Mon 08:59:44 PM 41.5070 -103.0750 97° East 504 580 37,000  Level FlightAware ADS-B
Mon 09:00:41 PM 41.4900 -102.9010 97° East 501 577 37,000  Level FlightAware ADS-B
Mon 09:01:22 PM 41.4780 -102.7750 97° East 502 578 37,000  Level FlightAware ADS-B
Mon 09:01:58 PM 41.4700 -102.6810 96° East 502 578 37,000  Level FlightAware ADS-B
Mon 09:02:45 PM 41.4530 -102.5070 97° East 500 575 37,000  Level FlightAware ADS-B
Mon 09:03:25 PM 41.4430 -102.3850 96° East 500 575 37,000  Level FlightAware ADS-B
Mon 09:04:09 PM 41.4420 -102.2490 91° East 498 573 37,000  Level FlightAware ADS-B
Mon 09:04:53 PM 41.4420 -102.1160 90° East 495 570 37,000  Level FlightAware ADS-B
Mon 09:06:01 PM 41.4420 -101.9090 90° East 489 563 37,000  Level FlightAware ADS-B
Mon 09:06:43 PM 41.4420 -101.7830 90° East 487 560 37,000  Level FlightAware ADS-B
Mon 09:07:23 PM 41.4410 -101.6630 91° East 484 557 37,000  Level FlightAware ADS-B
Mon 09:08:07 PM 41.4400 -101.5360 91° East 481 554 37,000  Level FlightAware ADS-B
Mon 09:08:47 PM 41.4390 -101.4170 91° East 477 549 37,000  Level FlightAware ADS-B
Mon 09:10:01 PM 41.4380 -101.2240 90° East 475 547 37,000  Level FlightAware ADS-B
Mon 09:10:35 PM 41.4380 -101.1390 90° East 475 547 37,000  Level FlightAware ADS-B
Mon 09:11:23 PM 41.4380 -101.0200 90° East 475 547 37,000  Level FlightAware ADS-B
Mon 09:11:57 PM 41.4380 -100.9350 90° East 475 547 37,000  Level FlightAware ADS-B
Mon 09:12:45 PM 41.4380 -100.8150 90° East 475 547 37,000  Level FlightAware ADS-B
Mon 09:13:23 PM 41.4380 -100.7210 90° East 475 547 37,000  Level FlightAware ADS-B
Mon 09:14:11 PM 41.4380 -100.6010 90° East 475 547 37,000  Level FlightAware ADS-B
Mon 09:14:48 PM 41.4380 -100.5090 90° East 475 547 37,000  Level FlightAware ADS-B
Mon 09:15:35 PM 41.4380 -100.3920 90° East 475 547 37,000  Level FlightAware ADS-B
Mon 09:16:11 PM 41.4380 -100.3020 90° East 475 547 37,000  Level FlightAware ADS-B
Mon 09:16:58 PM 41.4380 -100.1850 90° East 475 547 37,000  Level FlightAware ADS-B
Mon 09:17:36 PM 41.4380 -100.0900 90° East 475 547 37,000  Level FlightAware ADS-B
Mon 09:18:24 PM 41.4380 -99.9710 90° East 475 547 37,000  Level FlightAware ADS-B
Mon 09:19:01 PM 41.4380 -99.8780 90° East 475 547 37,000  Level FlightAware ADS-B
Mon 09:19:33 PM 41.4111 -99.5597 90° East 474 545 37,000  Level Denver Center
Mon 09:20:35 PM 41.4072 -99.3844 92° East 474 545 37,000 129 Level Denver Center
Mon 09:26:33 PM 41.3490 -98.3170 92° East 467 537 37,900 198 Climbing FlightAware ADS-B
Mon 09:27:09 PM 41.3220 -98.2220 111° Southeast 468 539 38,300 282 Climbing FlightAware ADS-B
Mon 09:27:58 PM 41.2910 -98.1090 110° East 468 539 38,300 429 Level FlightAware ADS-B
Mon 09:28:47 PM 41.2460 -97.9680 113° Southeast 475 547 39,000 424 Climbing FlightAware ADS-B
Mon 09:29:37 PM 41.2000 -97.8190 112° Southeast 476 548 39,000  Level FlightAware ADS-B
Mon 09:30:18 PM 41.1660 -97.7100 112° Southeast 476 548 39,000  Level FlightAware ADS-B
Mon 09:30:58 PM 41.1320 -97.6020 113° Southeast 471 542 39,000  Level FlightAware ADS-B
Mon 09:31:42 PM 41.0970 -97.4870 112° Southeast 461 531 39,000  Level FlightAware ADS-B
Mon 09:32:24 PM 41.0640 -97.3770 112° Southeast 458 527 39,000  Level FlightAware ADS-B
Mon 09:33:04 PM 41.0350 -97.2700 110° East 461 531 39,000  Level FlightAware ADS-B
Mon 09:33:48 PM 41.0280 -97.1480 94° East 469 540 39,000  Level FlightAware ADS-B
Mon 09:34:30 PM 41.0340 -97.0260 86° East 469 540 39,000  Level FlightAware ADS-B
Mon 09:35:14 PM 41.0400 -96.9010 86° East 468 539 39,000  Level FlightAware ADS-B
Mon 09:35:52 PM 41.0450 -96.7950 86° East 466 536 39,000  Level FlightAware ADS-B
Mon 09:36:36 PM 41.0510 -96.6670 86° East 465 535 39,000  Level FlightAware ADS-B
Mon 09:37:18 PM 41.0560 -96.5490 87° East 466 536 39,000  Level FlightAware ADS-B
Mon 09:37:59 PM 41.0610 -96.4350 87° East 467 537 39,000  Level FlightAware ADS-B
Mon 09:38:42 PM 41.0670 -96.3100 86° East 468 539 39,000  Level FlightAware ADS-B
Mon 09:39:22 PM 41.0720 -96.1940 87° East 467 537 39,000  Level FlightAware ADS-B
Mon 09:40:08 PM 41.0770 -96.0630 87° East 468 539 39,000  Level FlightAware ADS-B
Mon 09:40:48 PM 41.0820 -95.9500 87° East 469 540 39,000  Level FlightAware ADS-B
Mon 09:41:30 PM 41.0860 -95.8310 87° East 470 541 39,000  Level FlightAware ADS-B
Mon 09:42:14 PM 41.0910 -95.7040 87° East 464 534 39,000  Level FlightAware ADS-B
Mon 09:42:50 PM 41.0950 -95.6030 87° East 460 529 39,000  Level FlightAware ADS-B
Mon 09:43:34 PM 41.1000 -95.4770 87° East 457 526 39,000  Level FlightAware ADS-B
Mon 09:44:16 PM 41.1040 -95.3630 87° East 457 526 39,000  Level FlightAware ADS-B
Mon 09:45:02 PM 41.1080 -95.2340 88° East 455 524 39,000  Level FlightAware ADS-B
Mon 09:45:44 PM 41.1120 -95.1170 87° East 454 522 39,000  Level FlightAware ADS-B
Mon 09:46:24 PM 41.1160 -95.0050 87° East 452 520 39,000  Level FlightAware ADS-B
Mon 09:47:06 PM 41.1190 -94.8900 88° East 451 519 39,000  Level FlightAware ADS-B
Mon 09:47:48 PM 41.1220 -94.7740 88° East 450 518 39,000  Level FlightAware ADS-B
Mon 09:48:28 PM 41.1260 -94.6640 87° East 450 518 39,000  Level FlightAware ADS-B
Mon 09:49:10 PM 41.1290 -94.5530 88° East 450 518 39,000  Level FlightAware ADS-B
Mon 09:49:54 PM 41.1320 -94.4280 88° East 451 519 39,000  Level FlightAware ADS-B
Mon 09:50:36 PM 41.1350 -94.3110 88° East 451 519 39,000  Level FlightAware ADS-B
Mon 09:51:21 PM 41.1380 -94.2010 88° East 451 519 39,000  Level FlightAware ADS-B
Mon 09:51:54 PM 41.1410 -94.1000 88° East 451 519 39,000  Level FlightAware ADS-B
Mon 09:52:38 PM 41.1430 -93.9770 89° East 450 518 39,000  Level FlightAware ADS-B
Mon 09:53:24 PM 41.1460 -93.8530 88° East 449 517 39,000  Level FlightAware ADS-B
Mon 09:54:16 PM 41.1490 -93.7080 88° East 446 513 39,000  Level FlightAware ADS-B
Mon 09:54:54 PM 41.1520 -93.6190 87° East 446 513 39,000  Level FlightAware ADS-B
Mon 09:55:42 PM 41.1540 -93.4760 89° East 440 506 39,000  Level FlightAware ADS-B
Mon 09:56:18 PM 41.1560 -93.3790 88° East 438 504 39,000  Level FlightAware ADS-B
Mon 09:57:09 PM 41.1580 -93.2400 89° East 435 501 39,000  Level FlightAware ADS-B
Mon 09:57:49 PM 41.1590 -93.1350 89° East 433 498 39,000  Level FlightAware ADS-B
Mon 09:58:33 PM 41.1610 -93.0170 89° East 434 499 39,000  Level FlightAware ADS-B
Mon 09:59:13 PM 41.1630 -92.9100 89° East 434 499 39,000  Level FlightAware ADS-B
Mon 09:59:55 PM 41.1640 -92.7990 89° East 433 498 39,000  Level FlightAware ADS-B
Mon 10:00:39 PM 41.1660 -92.6850 89° East 431 496 39,000 -357 Level FlightAware ADS-B
Mon 10:01:19 PM 41.1670 -92.5810 89° East 430 495 38,500 -868 Descending FlightAware ADS-B
Mon 10:01:55 PM 41.1670 -92.4870 90° East 433 498 37,900 -966 Descending FlightAware ADS-B
Mon 10:02:46 PM 41.1690 -92.3470 89° East 434 499 37,100 -587 Descending FlightAware ADS-B
Mon 10:03:27 PM 41.1700 -92.2420 89° East 434 499 37,000 -79 Descending FlightAware ADS-B
Mon 10:04:02 PM 41.1700 -92.1480 90° East 435 501 37,000  Level FlightAware ADS-B
Mon 10:04:50 PM 41.1710 -92.0190 89° East 437 503 37,000  Level FlightAware ADS-B
Mon 10:05:30 PM 41.1720 -91.9160 89° East 437 503 37,000 -214 Level FlightAware ADS-B
Mon 10:06:14 PM 41.1720 -91.7950 90° East 433 498 36,700 -1,091 Descending FlightAware ADS-B
Mon 10:06:58 PM 41.1730 -91.6810 89° East 424 488 35,400 -1,800 Descending FlightAware ADS-B
Mon 10:07:34 PM 41.1730 -91.5860 90° East 442 509 34,300 -1,500 Descending FlightAware ADS-B
Mon 10:08:18 PM 41.1730 -91.4630 90° East 456 525 33,400 -2,045 Descending FlightAware ADS-B
Mon 10:09:02 PM 41.1730 -91.3390 90° East 463 533 31,300 -2,612 Descending FlightAware ADS-B
Mon 10:09:43 PM 41.1730 -91.2230 90° East 461 531 29,700 -2,302 Descending FlightAware ADS-B
Mon 10:10:28 PM 41.1730 -91.0990 90° East 458 527 28,000 -2,296 Descending FlightAware ADS-B
Mon 10:11:04 PM 41.1730 -90.9950 90° East 453 521 26,600 -1,650 Descending FlightAware ADS-B
Mon 10:11:48 PM 41.1720 -90.8770 91° East 447 514 25,800 -1,023 Descending FlightAware ADS-B
Mon 10:12:32 PM 41.1720 -90.7570 90° East 445 512 25,100 -929 Descending FlightAware ADS-B
Mon 10:13:12 PM 41.1710 -90.6430 91° East 465 535 24,500 -929 Descending FlightAware ADS-B
Mon 10:13:56 PM 41.1700 -90.5180 91° East 469 540 23,800 -988 Descending FlightAware ADS-B
Mon 10:14:37 PM 41.1690 -90.4010 91° East 465 535 23,100 -1,000 Descending FlightAware ADS-B
Mon 10:15:20 PM 41.1680 -90.2820 91° East 462 532 22,400 -940 Descending FlightAware ADS-B
Mon 10:16:00 PM 41.1670 -90.1750 91° East 452 520 21,800 -951 Descending FlightAware ADS-B
Mon 10:16:42 PM 41.1660 -90.0550 91° East 446 513 21,100 -1,256 Descending FlightAware ADS-B
Mon 10:17:26 PM 41.1640 -89.9320 91° East 433 498 20,000 -1,829 Descending FlightAware ADS-B
Mon 10:18:04 PM 41.1630 -89.8330 91° East 426 490 18,600 -2,286 Descending FlightAware ADS-B
Mon 10:18:50 PM 41.1610 -89.7120 91° East 420 483 16,800 -2,386 Descending FlightAware ADS-B
Mon 10:19:32 PM 41.1600 -89.6030 91° East 416 479 15,100 -1,610 Descending FlightAware ADS-B
Mon 10:20:12 PM 41.1650 -89.5060 86° East 414 476 14,600 -786 Descending FlightAware ADS-B
Mon 10:20:56 PM 41.1730 -89.3970 84° East 414 476 14,000 -439 Descending FlightAware ADS-B
Mon 10:21:34 PM 41.1790 -89.3030 85° East 411 473 14,000  Level FlightAware ADS-B
Mon 10:22:19 PM 41.1870 -89.1890 85° East 413 475 14,000 -209 Level FlightAware ADS-B
Mon 10:23:00 PM 41.1940 -89.0810 85° East 411 473 13,700 -667 Descending FlightAware ADS-B
Mon 10:23:40 PM 41.2000 -88.9860 85° East 410 472 13,100 -977 Descending FlightAware ADS-B
Mon 10:24:26 PM 41.2110 -88.8720 83° East 400 460 12,300 -1,379 Descending FlightAware ADS-B
Mon 10:25:07 PM 41.2520 -88.7890 57° Northeast 369 425 11,100 -1,610 Descending FlightAware ADS-B
Mon 10:25:48 PM 41.2960 -88.7200 50° Northeast 335 386 10,100 -1,315 Descending FlightAware ADS-B
Mon 10:26:20 PM 41.3260 -88.6720 50° Northeast 311 358 9,500 -1,500 Descending FlightAware ADS-B
Mon 10:26:48 PM 41.3520 -88.6310 50° Northeast 308 354 8,600 -1,692 Descending FlightAware ADS-B
Mon 10:26:59 PM 41.3610 -88.6170 49° Northeast 308 354 8,400 -1,800 Descending FlightAware ADS-B
Mon 10:27:28 PM 41.3880 -88.5730 51° Northeast 313 360 7,400 -1,895 Descending FlightAware ADS-B
Mon 10:27:56 PM 41.4100 -88.5290 56° Northeast 320 368 6,600 -1,393 Descending FlightAware ADS-B
Mon 10:28:24 PM 41.4200 -88.4750 76° East 316 364 6,100 -692 Descending FlightAware ADS-B
Mon 10:28:48 PM 41.4290 -88.4290 75° East 315 362 6,000 -103 Descending FlightAware ADS-B
Mon 10:29:22 PM 41.4410 -88.3650 76° East 317 365 6,000  Level FlightAware ADS-B
Mon 10:29:34 PM 41.4450 -88.3430 76° East 311 358 6,000  Level FlightAware ADS-B
Mon 10:30:02 PM 41.4550 -88.2900 76° East 308 354 6,000  Level FlightAware ADS-B
Mon 10:30:30 PM 41.4650 -88.2380 76° East 306 352 6,000 -321 Level FlightAware ADS-B
Mon 10:30:58 PM 41.4740 -88.1890 76° East 305 351 5,700 -1,000 Descending FlightAware ADS-B
Mon 10:31:24 PM 41.4810 -88.1420 79° East 304 350 5,100 -778 Descending FlightAware ADS-B
Mon 10:31:52 PM 41.4900 -88.0910 77° East 301 346 5,000 -107 Descending FlightAware ADS-B
Mon 10:32:20 PM 41.4980 -88.0380 79° East 299 344 5,000 -100 Level FlightAware ADS-B
Mon 10:32:52 PM 41.5080 -87.9800 77° East 301 346 4,900 -800 Descending FlightAware ADS-B
Mon 10:33:20 PM 41.5160 -87.9300 78° East 304 350 4,200 -1,286 Descending FlightAware ADS-B
Mon 10:33:48 PM 41.5240 -87.8790 78° East 297 342 3,700 -824 Descending FlightAware ADS-B
Mon 10:34:11 PM 41.5300 -87.8420 78° East 286 329 3,500 -500 Descending FlightAware ADS-B
Mon 10:34:36 PM 41.5370 -87.7960 78° East 269 310 3,300 -421 Descending FlightAware ADS-B
Mon 10:35:08 PM 41.5460 -87.7460 76° East 256 295 3,100 -375 Descending FlightAware ADS-B
Mon 10:35:24 PM 41.5520 -87.7230 71° East 248 285 3,000 -188 Descending FlightAware ADS-B
Mon 10:35:40 PM 41.5640 -87.7040 50° Northeast 240 276 3,000  Level FlightAware ADS-B
Mon 10:36:06 PM 41.5820 -87.6740 51° Northeast 239 275 3,000  Level FlightAware ADS-B
Mon 10:36:34 PM 41.6000 -87.6440 51° Northeast 241 277 3,000  Level FlightAware ADS-B
Mon 10:37:00 PM 41.6190 -87.6120 52° Northeast 241 277 3,000  Level FlightAware ADS-B
Mon 10:37:15 PM 41.6290 -87.5950 52° Northeast 241 277 3,000  Level FlightAware ADS-B
Mon 10:37:30 PM 41.6430 -87.5830 33° Northeast 225 259 3,000 -240 Level FlightAware ADS-B
Mon 10:37:40 PM 41.6530 -87.5800 13° North 211 243 2,900 -474 Descending FlightAware ADS-B
Mon 10:38:08 PM 41.6760 -87.5880 345° North 179 206 2,700 -511 Descending FlightAware ADS-B
Mon 10:38:27 PM 41.6860 -87.6030 312° West 166 191 2,500 -267 Descending FlightAware ADS-B
Mon 10:38:53 PM 41.6960 -87.6250 301° West 164 189 2,500  Level FlightAware ADS-B
Mon 10:39:21 PM 41.7100 -87.6470 310° West 164 189 2,500 -517 Level FlightAware ADS-B
Mon 10:39:51 PM 41.7270 -87.6690 316° Northwest 174 200 2,000 -1,105 Descending FlightAware ADS-B
Mon 10:39:59 PM 41.7320 -87.6730 329° Northwest 185 213 1,800 -474 Descending FlightAware ADS-B
Mon 10:40:29 PM 41.7560 -87.6800 348° North 177 204 1,700 -79 Descending FlightAware ADS-B
Mon 10:41:15 PM 41.7940 -87.6770 North 185 213 1,700  Level FlightAware ADS-B
Mon 10:41:27 PM 41.8010 -87.6670 47° Northeast 190 219 1,700  Level FlightAware ADS-B
Mon 10:41:43 PM 41.8120 -87.6570 34° Northeast 184 212 1,700  Level FlightAware ADS-B
Mon 10:41:55 PM 41.8220 -87.6560 North 169 194 1,700  Level FlightAware ADS-B
Mon 10:42:09 PM 41.8300 -87.6630 327° Northwest 157 181 1,700  Level FlightAware ADS-B
Mon 10:42:23 PM 41.8350 -87.6760 297° West 146 168 1,700 -143 Level FlightAware ADS-B
Mon 10:42:51 PM 41.8290 -87.6950 247° West 126 145 1,600 -436 Descending FlightAware ADS-B
Mon 10:43:18 PM 41.8170 -87.7110 225° Southwest 125 144 1,300 -643 Descending FlightAware ADS-B
Mon 10:43:47 PM 41.8050 -87.7270 225° Southwest 134 154 1,000 -327 Descending FlightAware ADS-B
Mon 10:44:13 PM 41.7950 -87.7400 224° Southwest 134 154 1,000 -102 Level FlightAware ADS-B
Mon 10:44:46 PM 41.7800 -87.7569 224° Southwest 138 159 900 -182 Descending Chicago Center

Login

Don't have an account? Register now (free) for customized features, flight alerts, and more!